F/V Fleur Des Vagues — FPEJ — position and weather

sailwx.info

Track history (hours):
 
Tides and Currents Weather Stations Pressure Air Temp Water Temp Dewpoint Dewpoint Depression Visibility Wind Speed Wind Dir Waves Ship Positions

F/V Fleur Des Vagues

Last reported at 2017-Aug-11 11:00 UTC. Time now 2017-Aug-19 13:19 UTC.
Position N 46°30' W 001°47'.
Warning: this ship's position is 8 days out of date.

Length 16 m.

Type: Fishing. MMSI: 227893000.

Date/timePositionNaut miles runAvg speedWind from/ knotsBaromVisibWave heightAir tempDewpointWater temp
2017-Aug-11 11:00N 46°30' W 001°47'0 0.0
2017-Aug-11 10:30N 46°30' W 001°47'0 0.0
2017-Aug-11 10:00N 46°30' W 001°47'0 0.0
2017-Aug-11 09:30N 46°30' W 001°47'1 1.8
2017-Aug-11 09:00N 46°29' W 001°47'3 6.7
2017-Aug-11 08:30N 46°29' W 001°52'4 8.0
2017-Aug-11 08:00N 46°30' W 001°58'3 5.4
2017-Aug-11 07:29N 46°31' W 002°01'0 1.0
2017-Aug-11 07:00N 46°32' W 002°02'1 1.9
2017-Aug-11 06:30N 46°31' W 002°01'1 1.8
2017-Aug-11 06:00N 46°32' W 002°01'1 1.5
2017-Aug-11 05:30N 46°31' W 002°01'0 0.7
2017-Aug-11 04:59N 46°31' W 002°01'0 0.6
2017-Aug-11 04:30N 46°32' W 002°01'1 1.9
2017-Aug-11 04:00N 46°31' W 002°00'1 1.2
2017-Aug-11 03:30N 46°31' W 002°01'0 0.2
2017-Aug-11 02:57N 46°32' W 002°01'2 5.4
2017-Aug-11 02:30N 46°31' W 001°58'4 7.2
2017-Aug-11 02:01N 46°29' W 001°53'4 7.3
2017-Aug-11 01:30N 46°28' W 001°48'2 3.2
2017-Aug-11 01:00N 46°30' W 001°47'0 0.0
2017-Aug-11 00:28N 46°30' W 001°47'0 0.0
2017-Aug-10 23:58N 46°30' W 001°47'0 0.0
2017-Aug-10 23:28N 46°30' W 001°47'0 0.0
2017-Aug-10 22:57N 46°30' W 001°47'0 0.0
2017-Aug-10 22:31N 46°30' W 001°47'0 0.0
2017-Aug-10 22:00N 46°30' W 001°47'0 0.0
2017-Aug-10 21:27N 46°30' W 001°47'0 0.0
2017-Aug-10 21:00N 46°30' W 001°47'0 0.0
2017-Aug-10 20:31N 46°30' W 001°47'0 0.0
2017-Aug-10 19:57N 46°30' W 001°47'0 0.0
2017-Aug-10 19:30N 46°30' W 001°47'0 0.0
2017-Aug-10 19:00N 46°30' W 001°47'0 0.0
2017-Aug-10 18:31N 46°30' W 001°47'0 0.0
2017-Aug-10 18:00N 46°30' W 001°47'0 0.0
2017-Aug-10 17:30N 46°30' W 001°47'0 0.0
2017-Aug-10 17:00N 46°30' W 001°47'0 0.0
2017-Aug-10 16:31N 46°30' W 001°47'0 0.0
2017-Aug-10 16:00N 46°30' W 001°47'0 0.0
2017-Aug-10 15:30N 46°30' W 001°47'0 0.0
2017-Aug-10 15:00N 46°30' W 001°47'0 0.0
2017-Aug-10 14:30N 46°30' W 001°47'0 0.0
2017-Aug-10 13:54N 46°30' W 001°47'0 0.0
2017-Aug-10 13:30N 46°30' W 001°47'0 0.0
2017-Aug-10 13:00N 46°30' W 001°47'0 0.0
2017-Aug-10 12:30N 46°30' W 001°47'0 0.2
2017-Aug-10 12:00N 46°30' W 001°47'2 3.6
2017-Aug-10 11:30N 46°28' W 001°48'3 5.4
2017-Aug-10 11:00N 46°29' W 001°52'3 6.5
2017-Aug-10 10:30N 46°30' W 001°56'3 5.8
2017-Aug-10 10:00N 46°31' W 001°60'1 2.0
2017-Aug-10 09:30N 46°32' W 002°01'1 1.1
2017-Aug-10 08:57N 46°31' W 002°01'0 0.5
2017-Aug-10 08:30N 46°31' W 002°01'1 1.8
2017-Aug-10 08:00N 46°32' W 002°01'1 1.4
2017-Aug-10 07:29N 46°31' W 002°01'1 1.2
2017-Aug-10 06:57N 46°32' W 002°01'0 0.9
2017-Aug-10 06:31N 46°31' W 002°01'0 0.3
2017-Aug-10 05:59N 46°31' W 002°01'0 0.3
2017-Aug-10 05:30N 46°31' W 002°01'1 1.1
2017-Aug-10 05:00N 46°32' W 002°02'1 1.6
2017-Aug-10 04:29N 46°31' W 002°01'1 1.2
2017-Aug-10 03:58N 46°32' W 002°01'0 0.4
2017-Aug-10 03:31N 46°32' W 002°01'1 1.0
2017-Aug-10 03:00N 46°31' W 002°00'2 4.8
2017-Aug-10 02:30N 46°31' W 001°57'3 6.6
2017-Aug-10 02:01N 46°29' W 001°52'3 6.6
2017-Aug-10 01:31N 46°28' W 001°48'2 3.0
2017-Aug-10 00:59N 46°30' W 001°47'0 0.0
2017-Aug-10 00:29N 46°30' W 001°47'0 0.0
2017-Aug-09 23:59N 46°30' W 001°47'0 0.0
2017-Aug-09 23:29N 46°30' W 001°47'0 0.0
2017-Aug-09 22:59N 46°30' W 001°47'0 0.0
2017-Aug-09 22:29N 46°30' W 001°47'0 0.0
2017-Aug-09 21:59N 46°30' W 001°47'0 0.0
2017-Aug-09 21:29N 46°30' W 001°47'0 0.0
2017-Aug-09 20:59N 46°30' W 001°47'0 0.0
2017-Aug-09 20:29N 46°30' W 001°47'0 0.0
2017-Aug-09 19:58N 46°30' W 001°47'0 0.0
2017-Aug-09 19:29N 46°30' W 001°47'0 0.0
2017-Aug-09 18:59N 46°30' W 001°47'0 0.0
2017-Aug-09 18:29N 46°30' W 001°47'0 0.0
2017-Aug-09 17:59N 46°30' W 001°47'0 0.0
2017-Aug-09 17:29N 46°30' W 001°47'0 0.0
2017-Aug-09 16:59N 46°30' W 001°47'0 0.0
2017-Aug-09 16:29N 46°30' W 001°47'0 0.0
2017-Aug-09 15:58N 46°30' W 001°47'0 0.0
2017-Aug-09 15:29N 46°30' W 001°47'0 0.0
2017-Aug-09 14:59N 46°30' W 001°47'0 0.0
2017-Aug-09 14:29N 46°30' W 001°47'0 0.0
2017-Aug-09 13:59N 46°30' W 001°47'0 0.1
2017-Aug-09 13:30N 46°30' W 001°47'2 4.1
2017-Aug-09 13:01N 46°28' W 001°49'4 8.7
2017-Aug-09 12:31N 46°30' W 001°55'4 8.1
2017-Aug-09 12:01N 46°31' W 002°00'0 0.3
2017-Aug-09 11:30N 46°31' W 002°01'0 0.7
2017-Aug-09 11:00N 46°31' W 002°01'0 1.0
2017-Aug-09 10:31N 46°31' W 002°01'1 1.1
2017-Aug-09 09:58N 46°32' W 002°01'0 0.3
2017-Aug-09 09:23N 46°32' W 002°01'0 0.2
2017-Aug-09 08:52N 46°32' W 002°01'0 1.1
2017-Aug-09 08:30N 46°31' W 002°01'0 0.8
2017-Aug-09 07:59N 46°31' W 002°00'0 0.5
2017-Aug-09 07:16N 46°32' W 002°01'0 1.8
2017-Aug-09 07:00N 46°31' W 002°00'3 6.5
2017-Aug-09 06:31N 46°33' W 002°04'1 2.8
2017-Aug-09 06:00N 46°33' W 002°06'14 0.8
2017-Aug-08 13:10N 46°30' W 001°47'0 2.5
2017-Aug-08 13:01N 46°30' W 001°48'3 5.2
2017-Aug-08 12:30N 46°29' W 001°51'4 8.9
2017-Aug-08 12:00N 46°30' W 001°57'4 8.8
2017-Aug-08 11:30N 46°32' W 002°03'2 4.6
2017-Aug-08 11:00N 46°33' W 002°06'0 0.4
2017-Aug-08 10:30N 46°33' W 002°06'4 7.5
2017-Aug-08 09:59N 46°32' W 002°01'1 1.2
2017-Aug-08 09:30N 46°31' W 002°00'1 1.3
2017-Aug-08 09:00N 46°32' W 002°01'2 4.9
2017-Aug-08 08:30N 46°29' W 002°00'1 1.5
2017-Aug-08 08:00N 46°29' W 001°59'0 0.9
2017-Aug-08 07:30N 46°29' W 001°59'1 1.1
2017-Aug-08 07:00N 46°29' W 001°59'0 0.8
2017-Aug-08 06:30N 46°29' W 001°59'0 0.9
2017-Aug-08 06:00N 46°29' W 001°58'8 0.7
2017-Aug-07 19:10N 46°30' W 001°47'0 0.0
2017-Aug-07 18:55N 46°30' W 001°47'0 0.0
2017-Aug-07 18:28N 46°30' W 001°47'0 0.0
2017-Aug-07 17:58N 46°30' W 001°47'0 0.0
2017-Aug-07 17:28N 46°30' W 001°47'0 0.0
2017-Aug-07 16:58N 46°30' W 001°47'0 0.0
2017-Aug-07 16:28N 46°30' W 001°47'0 0.0
2017-Aug-07 15:58N 46°30' W 001°47'0 0.0
2017-Aug-07 15:28N 46°30' W 001°47'0 0.0
2017-Aug-07 14:58N 46°30' W 001°47'0 0.0
2017-Aug-07 14:28N 46°30' W 001°47'0 0.0
2017-Aug-07 13:58N 46°30' W 001°47'0 0.0
2017-Aug-07 13:28N 46°30' W 001°47'0 0.0
2017-Aug-07 12:58N 46°30' W 001°47'0 0.7
2017-Aug-07 12:30N 46°30' W 001°48'2 5.0
2017-Aug-07 12:00N 46°29' W 001°51'4 8.8
2017-Aug-07 11:30N 46°30' W 001°57'1 1.4
2017-Aug-07 11:00N 46°31' W 001°58'2 4.4
2017-Aug-07 10:29N 46°32' W 002°01'0 0.8
2017-Aug-07 10:00N 46°31' W 002°01'2 4.0
2017-Aug-07 09:30N 46°29' W 001°59'1 2.0
2017-Aug-07 09:00N 46°29' W 001°59'1 2.4
2017-Aug-07 08:30N 46°29' W 002°00'1 2.8
2017-Aug-07 08:00N 46°28' W 001°59'1 1.1
2017-Aug-07 07:28N 46°29' W 001°59'1 1.8
2017-Aug-07 07:00N 46°29' W 001°60'1 2.4
2017-Aug-07 06:30N 46°28' W 001°59'0 0.8
2017-Aug-07 06:00N 46°29' W 001°59'1 1.9
2017-Aug-07 05:30N 46°29' W 001°59'3 5.2
2017-Aug-07 05:01N 46°31' W 002°02'1 1.9
2017-Aug-07 04:30N 46°32' W 002°03'1 1.9
2017-Aug-07 04:01N 46°31' W 002°02'0 0.2
2017-Aug-07 03:29N 46°31' W 002°02'1 1.3
2017-Aug-07 02:59N 46°31' W 002°01'3 6.1
2017-Aug-07 02:30N 46°30' W 001°57'0 0.7
2017-Aug-07 01:58N 46°30' W 001°57'0 0.2
2017-Aug-07 01:28N 46°30' W 001°57'2 5.3
2017-Aug-07 01:00N 46°29' W 001°54'4 7.7
2017-Aug-07 00:30N 46°28' W 001°48'2 3.4
2017-Aug-07 00:00N 46°30' W 001°47'0 0.0
2017-Aug-06 23:27N 46°30' W 001°47'0 0.0
2017-Aug-06 23:00N 46°30' W 001°47'0 0.0
2017-Aug-06 22:26N 46°30' W 001°47'0 0.0
2017-Aug-06 21:57N 46°30' W 001°47'0 0.0
2017-Aug-06 21:30N 46°30' W 001°47'0 0.0
2017-Aug-06 21:00N 46°30' W 001°47'0 0.0
2017-Aug-06 20:29N 46°30' W 001°47'0 0.0
2017-Aug-06 19:57N 46°30' W 001°47'0 0.0
2017-Aug-06 19:30N 46°30' W 001°47'0 0.0
2017-Aug-06 19:00N 46°30' W 001°47'0 0.0
2017-Aug-06 18:30N 46°30' W 001°47'0 0.0
2017-Aug-06 18:00N 46°30' W 001°47'0 0.0
2017-Aug-06 17:29N 46°30' W 001°47'0 0.0
2017-Aug-06 17:00N 46°30' W 001°47'0 0.0
2017-Aug-06 16:29N 46°30' W 001°47'0 0.0
2017-Aug-06 16:00N 46°30' W 001°47'0 0.0
2017-Aug-06 15:30N 46°30' W 001°47'0 0.0
2017-Aug-06 14:59N 46°30' W 001°47'0 0.0
2017-Aug-06 14:30N 46°30' W 001°47'0 0.0
2017-Aug-06 13:59N 46°30' W 001°47'1 1.7
2017-Aug-06 13:30N 46°29' W 001°47'5 9.0
2017-Aug-06 13:00N 46°29' W 001°54'2 4.8
2017-Aug-06 12:31N 46°30' W 001°57'2 4.2
2017-Aug-06 12:00N 46°28' W 001°59'1 1.3
2017-Aug-06 11:30N 46°29' W 001°60'2 5.0
2017-Aug-06 11:01N 46°31' W 002°02'1 2.1
2017-Aug-06 10:30N 46°30' W 002°02'4 8.7
2017-Aug-06 10:00N 46°25' W 002°03'2 3.6
2017-Aug-06 09:30N 46°24' W 002°03'1 2.3
2017-Aug-06 09:00N 46°23' W 002°02'0 0.5
2017-Aug-06 08:30N 46°23' W 002°01'1 1.9
2017-Aug-06 07:59N 46°24' W 002°02'1 1.4
2017-Aug-06 07:27N 46°24' W 002°03'1 1.5
2017-Aug-06 07:00N 46°24' W 002°02'1 1.7
2017-Aug-06 06:30N 46°23' W 002°01'1 1.7
2017-Aug-06 06:00N 46°22' W 002°01'1 1.7
2017-Aug-06 05:30N 46°23' W 002°01'1 2.1
2017-Aug-06 05:00N 46°24' W 002°02'0 0.6
2017-Aug-06 04:30N 46°24' W 002°01'1 1.6
2017-Aug-06 04:00N 46°24' W 002°01'1 1.5
2017-Aug-06 03:28N 46°23' W 002°00'0 0.8
2017-Aug-06 02:59N 46°23' W 001°60'1 1.2
2017-Aug-06 02:30N 46°23' W 002°00'0 1.0
2017-Aug-06 02:00N 46°24' W 002°01'1 1.3
2017-Aug-06 01:27N 46°24' W 002°01'2 4.9
2017-Aug-06 01:00N 46°25' W 001°58'4 8.5
2017-Aug-06 00:31N 46°27' W 001°53'4 8.4
2017-Aug-06 00:00N 46°29' W 001°47'1 1.3
2017-Aug-05 23:28N 46°30' W 001°47'0 0.0
2017-Aug-05 23:01N 46°30' W 001°47'0 0.0
2017-Aug-05 22:31N 46°30' W 001°47'0 0.0
2017-Aug-05 21:57N 46°30' W 001°47'0 0.0
2017-Aug-05 21:30N 46°30' W 001°47'0 0.0
2017-Aug-05 21:00N 46°30' W 001°47'0 0.0
2017-Aug-05 20:30N 46°30' W 001°47'0 0.0
2017-Aug-05 20:00N 46°30' W 001°47'0 0.0
2017-Aug-05 19:30N 46°30' W 001°47'0 0.0
2017-Aug-05 19:00N 46°30' W 001°47'0 0.0
2017-Aug-05 18:30N 46°30' W 001°47'0 0.0
2017-Aug-05 18:00N 46°30' W 001°47'0 0.0
2017-Aug-05 17:30N 46°30' W 001°47'0 0.0
2017-Aug-05 17:00N 46°30' W 001°47'0 0.0
2017-Aug-05 16:30N 46°30' W 001°47'0 0.0
2017-Aug-05 16:00N 46°30' W 001°47'0 0.0
2017-Aug-05 15:31N 46°30' W 001°47'0 0.0
2017-Aug-05 15:00N 46°30' W 001°47'0 0.0
2017-Aug-05 14:30N 46°30' W 001°47'0 0.0
2017-Aug-05 14:00N 46°30' W 001°47'0 0.0
2017-Aug-05 13:30N 46°30' W 001°47'2 4.5
2017-Aug-05 13:00N 46°28' W 001°50'5 9.1
2017-Aug-05 12:31N 46°27' W 001°55'4 8.8
2017-Aug-05 12:01N 46°24' W 002°01'0 0.5
2017-Aug-05 11:30N 46°24' W 002°01'2 3.1
2017-Aug-05 11:00N 46°23' W 002°01'0 0.6
2017-Aug-05 10:30N 46°23' W 002°01'3 6.5
2017-Aug-05 09:58N 46°26' W 002°03'4 8.5
2017-Aug-05 09:31N 46°30' W 002°02'2 3.8
2017-Aug-05 08:59N 46°32' W 002°01'0 0.2
2017-Aug-05 08:29N 46°32' W 002°01'0 0.6
2017-Aug-05 07:55N 46°32' W 002°01'1 1.2
2017-Aug-05 07:25N 46°32' W 002°01'0 0.3
2017-Aug-05 06:58N 46°32' W 002°01'1 1.4
2017-Aug-05 06:28N 46°31' W 002°01'0 0.5
2017-Aug-05 06:00N 46°31' W 002°00'1 1.7
2017-Aug-05 05:30N 46°32' W 002°01'0 0.2
2017-Aug-05 04:58N 46°32' W 002°01'1 1.2
2017-Aug-05 04:28N 46°32' W 002°01'1 3.2
2017-Aug-05 04:01N 46°31' W 001°59'1 1.9
2017-Aug-05 03:28N 46°30' W 001°58'0 0.6
2017-Aug-05 02:58N 46°30' W 001°57'0 0.5
2017-Aug-05 02:30N 46°30' W 001°57'1 1.1
2017-Aug-05 02:00N 46°30' W 001°57'4 7.3
2017-Aug-05 01:30N 46°29' W 001°52'3 6.1
2017-Aug-05 01:00N 46°30' W 001°48'0 0.8
2017-Aug-05 00:28N 46°30' W 001°47'0 0.0
2017-Aug-04 23:58N 46°30' W 001°47'0 0.0
2017-Aug-04 23:28N 46°30' W 001°47'0 0.0
2017-Aug-04 22:58N 46°30' W 001°47'0 0.0
2017-Aug-04 22:28N 46°30' W 001°47'0 0.0
2017-Aug-04 21:58N 46°30' W 001°47'0 0.0
2017-Aug-04 21:28N 46°30' W 001°47'0 0.0
2017-Aug-04 20:58N 46°30' W 001°47'0 0.0
2017-Aug-04 20:28N 46°30' W 001°47'0 0.0
2017-Aug-04 19:58N 46°30' W 001°47'0 0.0
2017-Aug-04 19:28N 46°30' W 001°47'0 0.0
2017-Aug-04 18:58N 46°30' W 001°47'0 0.0
2017-Aug-04 18:28N 46°30' W 001°47'0 0.0
2017-Aug-04 17:58N 46°30' W 001°47'0 0.0
2017-Aug-04 17:28N 46°30' W 001°47'0 0.0
2017-Aug-04 16:58N 46°30' W 001°47'0 0.2
2017-Aug-04 16:30N 46°30' W 001°47'3 6.4
2017-Aug-04 16:00N 46°28' W 001°51'4 8.6
2017-Aug-04 15:30N 46°30' W 001°57'1 2.9
2017-Aug-04 15:01N 46°31' W 001°59'2 2.1
2017-Aug-04 14:00N 46°32' W 002°01'1 2.1
2017-Aug-04 13:27N 46°31' W 002°00'1 1.1
2017-Aug-04 12:59N 46°32' W 002°01'0 0.9
2017-Aug-04 12:29N 46°32' W 002°01'0 1.0
2017-Aug-04 12:00N 46°32' W 002°01'0 0.4
2017-Aug-04 11:30N 46°31' W 002°01'1 1.1
2017-Aug-04 11:00N 46°32' W 002°01'0 0.5
2017-Aug-04 10:25N 46°32' W 002°01'0 1.0
2017-Aug-04 09:59N 46°31' W 002°00'0 0.4
2017-Aug-04 09:29N 46°31' W 002°01'0 0.7
2017-Aug-04 08:58N 46°31' W 002°00'1 1.3
2017-Aug-04 08:28N 46°32' W 002°01'0 0.4
2017-Aug-04 07:58N 46°32' W 002°01'1 1.2
2017-Aug-04 07:29N 46°31' W 001°60'1 1.1
2017-Aug-04 06:58N 46°31' W 001°59'0 0.9
2017-Aug-04 06:28N 46°31' W 001°60'1 1.1
2017-Aug-04 05:58N 46°31' W 002°00'1 1.0
2017-Aug-04 05:28N 46°32' W 002°01'0 0.6
2017-Aug-04 05:00N 46°32' W 002°01'3 4.9
2017-Aug-04 04:29N 46°30' W 001°58'0 0.5
2017-Aug-04 03:53N 46°30' W 001°58'0 0.5
2017-Aug-04 03:29N 46°30' W 001°58'0 0.4
2017-Aug-04 02:58N 46°30' W 001°57'0 0.6
2017-Aug-04 02:27N 46°30' W 001°57'0 0.7
2017-Aug-04 01:58N 46°30' W 001°57'0 0.7
2017-Aug-04 01:28N 46°30' W 001°57'1 1.9
2017-Aug-04 01:00N 46°30' W 001°56'4 7.9
2017-Aug-04 00:30N 46°29' W 001°51'3 5.4
2017-Aug-03 23:59N 46°30' W 001°47'0 0.0
2017-Aug-03 23:29N 46°30' W 001°47'0 0.0
2017-Aug-03 22:59N 46°30' W 001°47'0 0.0
2017-Aug-03 22:29N 46°30' W 001°47'0 0.0
2017-Aug-03 21:59N 46°30' W 001°47'0 0.0
2017-Aug-03 21:29N 46°30' W 001°47'0 0.0
2017-Aug-03 20:59N 46°30' W 001°47'0 0.0
2017-Aug-03 20:29N 46°30' W 001°47'0 0.0
2017-Aug-03 19:59N 46°30' W 001°47'0 0.0
2017-Aug-03 19:29N 46°30' W 001°47'0 0.0
2017-Aug-03 18:59N 46°30' W 001°47'0 0.0
2017-Aug-03 18:29N 46°30' W 001°47'0 0.0
2017-Aug-03 17:59N 46°30' W 001°47'0 0.0
2017-Aug-03 17:29N 46°30' W 001°47'0 0.0
2017-Aug-03 16:59N 46°30' W 001°47'0 0.0
2017-Aug-03 16:29N 46°30' W 001°47'0 0.0
2017-Aug-03 15:59N 46°30' W 001°47'0 0.0
2017-Aug-03 15:29N 46°30' W 001°47'0 0.0
2017-Aug-03 14:59N 46°30' W 001°47'0 0.0
2017-Aug-03 13:59N 46°30' W 001°47'0 0.0
2017-Aug-03 13:29N 46°30' W 001°47'0 0.0
2017-Aug-03 13:00N 46°30' W 001°47'2 4.1
2017-Aug-03 12:30N 46°29' W 001°49'5 9.1
2017-Aug-03 12:00N 46°30' W 001°56'4 7.7
2017-Aug-03 11:30N 46°32' W 002°01'0 0.3
2017-Aug-03 11:00N 46°32' W 002°01'0 0.7
2017-Aug-03 10:30N 46°31' W 002°01'2 3.5
2017-Aug-03 10:00N 46°30' W 001°59'1 2.2
2017-Aug-03 09:30N 46°30' W 001°57'1 1.7
2017-Aug-03 09:00N 46°29' W 001°57'3 7.0
2017-Aug-03 08:30N 46°28' W 001°52'3 6.4
2017-Aug-03 08:00N 46°30' W 001°47'0 0.9
2017-Aug-03 07:29N 46°30' W 001°47'  
Track history (hours):
 
Tides and Currents Weather Stations Pressure Air Temp Water Temp Dewpoint Dewpoint Depression Visibility Wind Speed Wind Dir Waves Ship Positions

F/V Fleur Des Vagues

Last reported at 2017-Aug-11 11:00 UTC. Time now 2017-Aug-19 13:19 UTC.
Position N 46°30' W 001°47'.
Warning: this ship's position is 8 days out of date.

Length 16 m.

Type: Fishing. MMSI: 227893000.

Date/timePositionNaut miles runAvg speedWind from/ knotsBaromVisibWave heightAir tempDewpointWater temp
2017-Aug-11 11:00N 46°30' W 001°47'0 0.0
2017-Aug-11 10:30N 46°30' W 001°47'0 0.0
2017-Aug-11 10:00N 46°30' W 001°47'0 0.0
2017-Aug-11 09:30N 46°30' W 001°47'1 1.8
2017-Aug-11 09:00N 46°29' W 001°47'3 6.7
2017-Aug-11 08:30N 46°29' W 001°52'4 8.0
2017-Aug-11 08:00N 46°30' W 001°58'3 5.4
2017-Aug-11 07:29N 46°31' W 002°01'0 1.0
2017-Aug-11 07:00N 46°32' W 002°02'1 1.9
2017-Aug-11 06:30N 46°31' W 002°01'1 1.8
2017-Aug-11 06:00N 46°32' W 002°01'1 1.5
2017-Aug-11 05:30N 46°31' W 002°01'0 0.7
2017-Aug-11 04:59N 46°31' W 002°01'0 0.6
2017-Aug-11 04:30N 46°32' W 002°01'1 1.9
2017-Aug-11 04:00N 46°31' W 002°00'1 1.2
2017-Aug-11 03:30N 46°31' W 002°01'0 0.2
2017-Aug-11 02:57N 46°32' W 002°01'2 5.4
2017-Aug-11 02:30N 46°31' W 001°58'4 7.2
2017-Aug-11 02:01N 46°29' W 001°53'4 7.3
2017-Aug-11 01:30N 46°28' W 001°48'2 3.2
2017-Aug-11 01:00N 46°30' W 001°47'0 0.0
2017-Aug-11 00:28N 46°30' W 001°47'0 0.0
2017-Aug-10 23:58N 46°30' W 001°47'0 0.0
2017-Aug-10 23:28N 46°30' W 001°47'0 0.0
2017-Aug-10 22:57N 46°30' W 001°47'0 0.0
2017-Aug-10 22:31N 46°30' W 001°47'0 0.0
2017-Aug-10 22:00N 46°30' W 001°47'0 0.0
2017-Aug-10 21:27N 46°30' W 001°47'0 0.0
2017-Aug-10 21:00N 46°30' W 001°47'0 0.0
2017-Aug-10 20:31N 46°30' W 001°47'0 0.0
2017-Aug-10 19:57N 46°30' W 001°47'0 0.0
2017-Aug-10 19:30N 46°30' W 001°47'0 0.0
2017-Aug-10 19:00N 46°30' W 001°47'0 0.0
2017-Aug-10 18:31N 46°30' W 001°47'0 0.0
2017-Aug-10 18:00N 46°30' W 001°47'0 0.0
2017-Aug-10 17:30N 46°30' W 001°47'0 0.0
2017-Aug-10 17:00N 46°30' W 001°47'0 0.0
2017-Aug-10 16:31N 46°30' W 001°47'0 0.0
2017-Aug-10 16:00N 46°30' W 001°47'0 0.0
2017-Aug-10 15:30N 46°30' W 001°47'0 0.0
2017-Aug-10 15:00N 46°30' W 001°47'0 0.0
2017-Aug-10 14:30N 46°30' W 001°47'0 0.0
2017-Aug-10 13:54N 46°30' W 001°47'0 0.0
2017-Aug-10 13:30N 46°30' W 001°47'0 0.0
2017-Aug-10 13:00N 46°30' W 001°47'0 0.0
2017-Aug-10 12:30N 46°30' W 001°47'0 0.2
2017-Aug-10 12:00N 46°30' W 001°47'2 3.6
2017-Aug-10 11:30N 46°28' W 001°48'3 5.4
2017-Aug-10 11:00N 46°29' W 001°52'3 6.5
2017-Aug-10 10:30N 46°30' W 001°56'3 5.8
2017-Aug-10 10:00N 46°31' W 001°60'1 2.0
2017-Aug-10 09:30N 46°32' W 002°01'1 1.1
2017-Aug-10 08:57N 46°31' W 002°01'0 0.5
2017-Aug-10 08:30N 46°31' W 002°01'1 1.8
2017-Aug-10 08:00N 46°32' W 002°01'1 1.4
2017-Aug-10 07:29N 46°31' W 002°01'1 1.2
2017-Aug-10 06:57N 46°32' W 002°01'0 0.9
2017-Aug-10 06:31N 46°31' W 002°01'0 0.3
2017-Aug-10 05:59N 46°31' W 002°01'0 0.3
2017-Aug-10 05:30N 46°31' W 002°01'1 1.1
2017-Aug-10 05:00N 46°32' W 002°02'1 1.6
2017-Aug-10 04:29N 46°31' W 002°01'1 1.2
2017-Aug-10 03:58N 46°32' W 002°01'0 0.4
2017-Aug-10 03:31N 46°32' W 002°01'1 1.0
2017-Aug-10 03:00N 46°31' W 002°00'2 4.8
2017-Aug-10 02:30N 46°31' W 001°57'3 6.6
2017-Aug-10 02:01N 46°29' W 001°52'3 6.6
2017-Aug-10 01:31N 46°28' W 001°48'2 3.0
2017-Aug-10 00:59N 46°30' W 001°47'0 0.0
2017-Aug-10 00:29N 46°30' W 001°47'0 0.0
2017-Aug-09 23:59N 46°30' W 001°47'0 0.0
2017-Aug-09 23:29N 46°30' W 001°47'0 0.0
2017-Aug-09 22:59N 46°30' W 001°47'0 0.0
2017-Aug-09 22:29N 46°30' W 001°47'0 0.0
2017-Aug-09 21:59N 46°30' W 001°47'0 0.0
2017-Aug-09 21:29N 46°30' W 001°47'0 0.0
2017-Aug-09 20:59N 46°30' W 001°47'0 0.0
2017-Aug-09 20:29N 46°30' W 001°47'0 0.0
2017-Aug-09 19:58N 46°30' W 001°47'0 0.0
2017-Aug-09 19:29N 46°30' W 001°47'0 0.0
2017-Aug-09 18:59N 46°30' W 001°47'0 0.0
2017-Aug-09 18:29N 46°30' W 001°47'0 0.0
2017-Aug-09 17:59N 46°30' W 001°47'0 0.0
2017-Aug-09 17:29N 46°30' W 001°47'0 0.0
2017-Aug-09 16:59N 46°30' W 001°47'0 0.0
2017-Aug-09 16:29N 46°30' W 001°47'0 0.0
2017-Aug-09 15:58N 46°30' W 001°47'0 0.0
2017-Aug-09 15:29N 46°30' W 001°47'0 0.0
2017-Aug-09 14:59N 46°30' W 001°47'0 0.0
2017-Aug-09 14:29N 46°30' W 001°47'0 0.0
2017-Aug-09 13:59N 46°30' W 001°47'0 0.1
2017-Aug-09 13:30N 46°30' W 001°47'2 4.1
2017-Aug-09 13:01N 46°28' W 001°49'4 8.7
2017-Aug-09 12:31N 46°30' W 001°55'4 8.1
2017-Aug-09 12:01N 46°31' W 002°00'0 0.3
2017-Aug-09 11:30N 46°31' W 002°01'0 0.7
2017-Aug-09 11:00N 46°31' W 002°01'0 1.0
2017-Aug-09 10:31N 46°31' W 002°01'1 1.1
2017-Aug-09 09:58N 46°32' W 002°01'0 0.3
2017-Aug-09 09:23N 46°32' W 002°01'0 0.2
2017-Aug-09 08:52N 46°32' W 002°01'0 1.1
2017-Aug-09 08:30N 46°31' W 002°01'0 0.8
2017-Aug-09 07:59N 46°31' W 002°00'0 0.5
2017-Aug-09 07:16N 46°32' W 002°01'0 1.8
2017-Aug-09 07:00N 46°31' W 002°00'3 6.5
2017-Aug-09 06:31N 46°33' W 002°04'1 2.8
2017-Aug-09 06:00N 46°33' W 002°06'14 0.8
2017-Aug-08 13:10N 46°30' W 001°47'0 2.5
2017-Aug-08 13:01N 46°30' W 001°48'3 5.2
2017-Aug-08 12:30N 46°29' W 001°51'4 8.9
2017-Aug-08 12:00N 46°30' W 001°57'4 8.8
2017-Aug-08 11:30N 46°32' W 002°03'2 4.6
2017-Aug-08 11:00N 46°33' W 002°06'0 0.4
2017-Aug-08 10:30N 46°33' W 002°06'4 7.5
2017-Aug-08 09:59N 46°32' W 002°01'1 1.2
2017-Aug-08 09:30N 46°31' W 002°00'1 1.3
2017-Aug-08 09:00N 46°32' W 002°01'2 4.9
2017-Aug-08 08:30N 46°29' W 002°00'1 1.5
2017-Aug-08 08:00N 46°29' W 001°59'0 0.9
2017-Aug-08 07:30N 46°29' W 001°59'1 1.1
2017-Aug-08 07:00N 46°29' W 001°59'0 0.8
2017-Aug-08 06:30N 46°29' W 001°59'0 0.9
2017-Aug-08 06:00N 46°29' W 001°58'8 0.7
2017-Aug-07 19:10N 46°30' W 001°47'0 0.0
2017-Aug-07 18:55N 46°30' W 001°47'0 0.0
2017-Aug-07 18:28N 46°30' W 001°47'0 0.0
2017-Aug-07 17:58N 46°30' W 001°47'0 0.0
2017-Aug-07 17:28N 46°30' W 001°47'0 0.0
2017-Aug-07 16:58N 46°30' W 001°47'0 0.0
2017-Aug-07 16:28N 46°30' W 001°47'0 0.0
2017-Aug-07 15:58N 46°30' W 001°47'0 0.0
2017-Aug-07 15:28N 46°30' W 001°47'0 0.0
2017-Aug-07 14:58N 46°30' W 001°47'0 0.0
2017-Aug-07 14:28N 46°30' W 001°47'0 0.0
2017-Aug-07 13:58N 46°30' W 001°47'0 0.0
2017-Aug-07 13:28N 46°30' W 001°47'0 0.0
2017-Aug-07 12:58N 46°30' W 001°47'0 0.7
2017-Aug-07 12:30N 46°30' W 001°48'2 5.0
2017-Aug-07 12:00N 46°29' W 001°51'4 8.8
2017-Aug-07 11:30N 46°30' W 001°57'1 1.4
2017-Aug-07 11:00N 46°31' W 001°58'2 4.4
2017-Aug-07 10:29N 46°32' W 002°01'0 0.8
2017-Aug-07 10:00N 46°31' W 002°01'2 4.0
2017-Aug-07 09:30N 46°29' W 001°59'1 2.0
2017-Aug-07 09:00N 46°29' W 001°59'1 2.4
2017-Aug-07 08:30N 46°29' W 002°00'1 2.8
2017-Aug-07 08:00N 46°28' W 001°59'1 1.1
2017-Aug-07 07:28N 46°29' W 001°59'1 1.8
2017-Aug-07 07:00N 46°29' W 001°60'1 2.4
2017-Aug-07 06:30N 46°28' W 001°59'0 0.8
2017-Aug-07 06:00N 46°29' W 001°59'1 1.9
2017-Aug-07 05:30N 46°29' W 001°59'3 5.2
2017-Aug-07 05:01N 46°31' W 002°02'1 1.9
2017-Aug-07 04:30N 46°32' W 002°03'1 1.9
2017-Aug-07 04:01N 46°31' W 002°02'0 0.2
2017-Aug-07 03:29N 46°31' W 002°02'1 1.3
2017-Aug-07 02:59N 46°31' W 002°01'3 6.1
2017-Aug-07 02:30N 46°30' W 001°57'0 0.7
2017-Aug-07 01:58N 46°30' W 001°57'0 0.2
2017-Aug-07 01:28N 46°30' W 001°57'2 5.3
2017-Aug-07 01:00N 46°29' W 001°54'4 7.7
2017-Aug-07 00:30N 46°28' W 001°48'2 3.4
2017-Aug-07 00:00N 46°30' W 001°47'0 0.0
2017-Aug-06 23:27N 46°30' W 001°47'0 0.0
2017-Aug-06 23:00N 46°30' W 001°47'0 0.0
2017-Aug-06 22:26N 46°30' W 001°47'0 0.0
2017-Aug-06 21:57N 46°30' W 001°47'0 0.0
2017-Aug-06 21:30N 46°30' W 001°47'0 0.0
2017-Aug-06 21:00N 46°30' W 001°47'0 0.0
2017-Aug-06 20:29N 46°30' W 001°47'0 0.0
2017-Aug-06 19:57N 46°30' W 001°47'0 0.0
2017-Aug-06 19:30N 46°30' W 001°47'0 0.0
2017-Aug-06 19:00N 46°30' W 001°47'0 0.0
2017-Aug-06 18:30N 46°30' W 001°47'0 0.0
2017-Aug-06 18:00N 46°30' W 001°47'0 0.0
2017-Aug-06 17:29N 46°30' W 001°47'0 0.0
2017-Aug-06 17:00N 46°30' W 001°47'0 0.0
2017-Aug-06 16:29N 46°30' W 001°47'0 0.0
2017-Aug-06 16:00N 46°30' W 001°47'0 0.0
2017-Aug-06 15:30N 46°30' W 001°47'0 0.0
2017-Aug-06 14:59N 46°30' W 001°47'0 0.0
2017-Aug-06 14:30N 46°30' W 001°47'0 0.0
2017-Aug-06 13:59N 46°30' W 001°47'1 1.7
2017-Aug-06 13:30N 46°29' W 001°47'5 9.0
2017-Aug-06 13:00N 46°29' W 001°54'2 4.8
2017-Aug-06 12:31N 46°30' W 001°57'2 4.2
2017-Aug-06 12:00N 46°28' W 001°59'1 1.3
2017-Aug-06 11:30N 46°29' W 001°60'2 5.0
2017-Aug-06 11:01N 46°31' W 002°02'1 2.1
2017-Aug-06 10:30N 46°30' W 002°02'4 8.7
2017-Aug-06 10:00N 46°25' W 002°03'2 3.6
2017-Aug-06 09:30N 46°24' W 002°03'1 2.3
2017-Aug-06 09:00N 46°23' W 002°02'0 0.5
2017-Aug-06 08:30N 46°23' W 002°01'1 1.9
2017-Aug-06 07:59N 46°24' W 002°02'1 1.4
2017-Aug-06 07:27N 46°24' W 002°03'1 1.5
2017-Aug-06 07:00N 46°24' W 002°02'1 1.7
2017-Aug-06 06:30N 46°23' W 002°01'1 1.7
2017-Aug-06 06:00N 46°22' W 002°01'1 1.7
2017-Aug-06 05:30N 46°23' W 002°01'1 2.1
2017-Aug-06 05:00N 46°24' W 002°02'0 0.6
2017-Aug-06 04:30N 46°24' W 002°01'1 1.6
2017-Aug-06 04:00N 46°24' W 002°01'1 1.5
2017-Aug-06 03:28N 46°23' W 002°00'0 0.8
2017-Aug-06 02:59N 46°23' W 001°60'1 1.2
2017-Aug-06 02:30N 46°23' W 002°00'0 1.0
2017-Aug-06 02:00N 46°24' W 002°01'1 1.3
2017-Aug-06 01:27N 46°24' W 002°01'2 4.9
2017-Aug-06 01:00N 46°25' W 001°58'4 8.5
2017-Aug-06 00:31N 46°27' W 001°53'4 8.4
2017-Aug-06 00:00N 46°29' W 001°47'1 1.3
2017-Aug-05 23:28N 46°30' W 001°47'0 0.0
2017-Aug-05 23:01N 46°30' W 001°47'0 0.0
2017-Aug-05 22:31N 46°30' W 001°47'0 0.0
2017-Aug-05 21:57N 46°30' W 001°47'0 0.0
2017-Aug-05 21:30N 46°30' W 001°47'0 0.0
2017-Aug-05 21:00N 46°30' W 001°47'0 0.0
2017-Aug-05 20:30N 46°30' W 001°47'0 0.0
2017-Aug-05 20:00N 46°30' W 001°47'0 0.0
2017-Aug-05 19:30N 46°30' W 001°47'0 0.0
2017-Aug-05 19:00N 46°30' W 001°47'0 0.0
2017-Aug-05 18:30N 46°30' W 001°47'0 0.0
2017-Aug-05 18:00N 46°30' W 001°47'0 0.0
2017-Aug-05 17:30N 46°30' W 001°47'0 0.0
2017-Aug-05 17:00N 46°30' W 001°47'0 0.0
2017-Aug-05 16:30N 46°30' W 001°47'0 0.0
2017-Aug-05 16:00N 46°30' W 001°47'0 0.0
2017-Aug-05 15:31N 46°30' W 001°47'0 0.0
2017-Aug-05 15:00N 46°30' W 001°47'0 0.0
2017-Aug-05 14:30N 46°30' W 001°47'0 0.0
2017-Aug-05 14:00N 46°30' W 001°47'0 0.0
2017-Aug-05 13:30N 46°30' W 001°47'2 4.5
2017-Aug-05 13:00N 46°28' W 001°50'5 9.1
2017-Aug-05 12:31N 46°27' W 001°55'4 8.8
2017-Aug-05 12:01N 46°24' W 002°01'0 0.5
2017-Aug-05 11:30N 46°24' W 002°01'2 3.1
2017-Aug-05 11:00N 46°23' W 002°01'0 0.6
2017-Aug-05 10:30N 46°23' W 002°01'3 6.5
2017-Aug-05 09:58N 46°26' W 002°03'4 8.5
2017-Aug-05 09:31N 46°30' W 002°02'2 3.8
2017-Aug-05 08:59N 46°32' W 002°01'0 0.2
2017-Aug-05 08:29N 46°32' W 002°01'0 0.6
2017-Aug-05 07:55N 46°32' W 002°01'1 1.2
2017-Aug-05 07:25N 46°32' W 002°01'0 0.3
2017-Aug-05 06:58N 46°32' W 002°01'1 1.4
2017-Aug-05 06:28N 46°31' W 002°01'0 0.5
2017-Aug-05 06:00N 46°31' W 002°00'1 1.7
2017-Aug-05 05:30N 46°32' W 002°01'0 0.2
2017-Aug-05 04:58N 46°32' W 002°01'1 1.2
2017-Aug-05 04:28N 46°32' W 002°01'1 3.2
2017-Aug-05 04:01N 46°31' W 001°59'1 1.9
2017-Aug-05 03:28N 46°30' W 001°58'0 0.6
2017-Aug-05 02:58N 46°30' W 001°57'0 0.5
2017-Aug-05 02:30N 46°30' W 001°57'1 1.1
2017-Aug-05 02:00N 46°30' W 001°57'4 7.3
2017-Aug-05 01:30N 46°29' W 001°52'3 6.1
2017-Aug-05 01:00N 46°30' W 001°48'0 0.8
2017-Aug-05 00:28N 46°30' W 001°47'0 0.0
2017-Aug-04 23:58N 46°30' W 001°47'0 0.0
2017-Aug-04 23:28N 46°30' W 001°47'0 0.0
2017-Aug-04 22:58N 46°30' W 001°47'0 0.0
2017-Aug-04 22:28N 46°30' W 001°47'0 0.0
2017-Aug-04 21:58N 46°30' W 001°47'0 0.0
2017-Aug-04 21:28N 46°30' W 001°47'0 0.0
2017-Aug-04 20:58N 46°30' W 001°47'0 0.0
2017-Aug-04 20:28N 46°30' W 001°47'0 0.0
2017-Aug-04 19:58N 46°30' W 001°47'0 0.0
2017-Aug-04 19:28N 46°30' W 001°47'0 0.0
2017-Aug-04 18:58N 46°30' W 001°47'0 0.0
2017-Aug-04 18:28N 46°30' W 001°47'0 0.0
2017-Aug-04 17:58N 46°30' W 001°47'0 0.0
2017-Aug-04 17:28N 46°30' W 001°47'0 0.0
2017-Aug-04 16:58N 46°30' W 001°47'0 0.2
2017-Aug-04 16:30N 46°30' W 001°47'3 6.4
2017-Aug-04 16:00N 46°28' W 001°51'4 8.6
2017-Aug-04 15:30N 46°30' W 001°57'1 2.9
2017-Aug-04 15:01N 46°31' W 001°59'2 2.1
2017-Aug-04 14:00N 46°32' W 002°01'1 2.1
2017-Aug-04 13:27N 46°31' W 002°00'1 1.1
2017-Aug-04 12:59N 46°32' W 002°01'0 0.9
2017-Aug-04 12:29N 46°32' W 002°01'0 1.0
2017-Aug-04 12:00N 46°32' W 002°01'0 0.4
2017-Aug-04 11:30N 46°31' W 002°01'1 1.1
2017-Aug-04 11:00N 46°32' W 002°01'0 0.5
2017-Aug-04 10:25N 46°32' W 002°01'0 1.0
2017-Aug-04 09:59N 46°31' W 002°00'0 0.4
2017-Aug-04 09:29N 46°31' W 002°01'0 0.7
2017-Aug-04 08:58N 46°31' W 002°00'1 1.3
2017-Aug-04 08:28N 46°32' W 002°01'0 0.4
2017-Aug-04 07:58N 46°32' W 002°01'1 1.2
2017-Aug-04 07:29N 46°31' W 001°60'1 1.1
2017-Aug-04 06:58N 46°31' W 001°59'0 0.9
2017-Aug-04 06:28N 46°31' W 001°60'1 1.1
2017-Aug-04 05:58N 46°31' W 002°00'1 1.0
2017-Aug-04 05:28N 46°32' W 002°01'0 0.6
2017-Aug-04 05:00N 46°32' W 002°01'3 4.9
2017-Aug-04 04:29N 46°30' W 001°58'0 0.5
2017-Aug-04 03:53N 46°30' W 001°58'0 0.5
2017-Aug-04 03:29N 46°30' W 001°58'0 0.4
2017-Aug-04 02:58N 46°30' W 001°57'0 0.6
2017-Aug-04 02:27N 46°30' W 001°57'0 0.7
2017-Aug-04 01:58N 46°30' W 001°57'0 0.7
2017-Aug-04 01:28N 46°30' W 001°57'1 1.9
2017-Aug-04 01:00N 46°30' W 001°56'4 7.9
2017-Aug-04 00:30N 46°29' W 001°51'3 5.4
2017-Aug-03 23:59N 46°30' W 001°47'0 0.0
2017-Aug-03 23:29N 46°30' W 001°47'0 0.0
2017-Aug-03 22:59N 46°30' W 001°47'0 0.0
2017-Aug-03 22:29N 46°30' W 001°47'0 0.0
2017-Aug-03 21:59N 46°30' W 001°47'0 0.0
2017-Aug-03 21:29N 46°30' W 001°47'0 0.0
2017-Aug-03 20:59N 46°30' W 001°47'0 0.0
2017-Aug-03 20:29N 46°30' W 001°47'0 0.0
2017-Aug-03 19:59N 46°30' W 001°47'0 0.0
2017-Aug-03 19:29N 46°30' W 001°47'0 0.0
2017-Aug-03 18:59N 46°30' W 001°47'0 0.0
2017-Aug-03 18:29N 46°30' W 001°47'0 0.0
2017-Aug-03 17:59N 46°30' W 001°47'0 0.0
2017-Aug-03 17:29N 46°30' W 001°47'0 0.0
2017-Aug-03 16:59N 46°30' W 001°47'0 0.0
2017-Aug-03 16:29N 46°30' W 001°47'0 0.0
2017-Aug-03 15:59N 46°30' W 001°47'0 0.0
2017-Aug-03 15:29N 46°30' W 001°47'0 0.0
2017-Aug-03 14:59N 46°30' W 001°47'0 0.0
2017-Aug-03 13:59N 46°30' W 001°47'0 0.0
2017-Aug-03 13:29N 46°30' W 001°47'0 0.0
2017-Aug-03 13:00N 46°30' W 001°47'2 4.1
2017-Aug-03 12:30N 46°29' W 001°49'5 9.1
2017-Aug-03 12:00N 46°30' W 001°56'4 7.7
2017-Aug-03 11:30N 46°32' W 002°01'0 0.3
2017-Aug-03 11:00N 46°32' W 002°01'0 0.7
2017-Aug-03 10:30N 46°31' W 002°01'2 3.5
2017-Aug-03 10:00N 46°30' W 001°59'1 2.2
2017-Aug-03 09:30N 46°30' W 001°57'1 1.7
2017-Aug-03 09:00N 46°29' W 001°57'3 7.0
2017-Aug-03 08:30N 46°28' W 001°52'3 6.4
2017-Aug-03 08:00N 46°30' W 001°47'0 0.9
2017-Aug-03 07:29N 46°30' W 001°47'  

Dump ship's entire track history